Time;durP1;ratioP1;P1;durP2;ratioP2;P2;SDS_P1;SDS_P2;PMS_P1;PMS_P2;Temp;Humidity;BMP_temperature;BMP_pressure;BME280_temperature;BME280_humidity;BME280_pressure;Samples;Min_cycle;Max_cycle;Signal;HPM_P1;HPM_P2
2023/11/06 00:00:38;;;;;;;0.10;0.10;;;;;;;7.91;100.00;97906.09;4942599;28;20059;-72
2023/11/06 00:03:04;;;;;;;0.10;0.10;;;;;;;7.91;100.00;97897.94;4966697;28;20041;-71
2023/11/06 00:05:30;;;;;;;0.10;0.10;;;;;;;7.92;100.00;97885.94;4946560;28;20274;-71
2023/11/06 00:07:58;;;;;;;0.10;0.10;;;;;;;7.92;100.00;97885.94;4939327;29;20537;-71
2023/11/06 00:10:24;;;;;;;0.10;0.10;;;;;;;7.95;100.00;97884.50;4938455;29;20051;-71
2023/11/06 00:12:50;;;;;;;0.10;0.10;;;;;;;7.99;100.00;97882.00;4942768;28;20066;-71
2023/11/06 00:15:20;;;;;;;0.10;0.10;;;;;;;8.01;100.00;97877.03;4943554;28;20047;-71
2023/11/06 00:17:47;;;;;;;0.10;0.10;;;;;;;8.03;100.00;97875.63;4943906;28;20611;-71
2023/11/06 00:20:13;;;;;;;0.10;0.10;;;;;;;8.01;100.00;97874.31;4941298;28;20518;-71
2023/11/06 00:22:40;;;;;;;0.08;0.08;;;;;;;8.04;100.00;97868.25;4946376;28;20434;-71
2023/11/06 00:25:07;;;;;;;0.10;0.10;;;;;;;8.07;100.00;97865.75;4942426;28;20082;-71
2023/11/06 00:27:34;;;;;;;0.10;0.10;;;;;;;8.09;100.00;97862.72;4941175;28;20047;-71
2023/11/06 00:30:01;;;;;;;0.10;0.10;;;;;;;8.10;100.00;97861.63;4974777;28;20133;-71
2023/11/06 00:32:34;;;;;;;0.10;0.10;;;;;;;8.15;100.00;97856.03;4932925;28;20448;-71
2023/11/06 00:35:00;;;;;;;0.10;0.10;;;;;;;8.17;100.00;97856.53;4975470;28;20134;-71
2023/11/06 00:37:27;;;;;;;0.10;0.10;;;;;;;8.18;100.00;97860.09;4939934;29;20082;-70
2023/11/06 00:39:53;;;;;;;0.10;0.10;;;;;;;8.22;100.00;97855.63;4981406;28;20282;-70
2023/11/06 00:42:20;;;;;;;0.10;0.10;;;;;;;8.25;100.00;97859.66;4950198;28;20473;-71
2023/11/06 00:44:46;;;;;;;0.10;0.10;;;;;;;8.26;100.00;97853.91;4993412;28;20051;-71
2023/11/06 00:47:12;;;;;;;0.10;0.10;;;;;;;8.27;100.00;97854.72;4961781;28;20063;-69
2023/11/06 00:49:40;;;;;;;0.10;0.10;;;;;;;8.27;100.00;97854.72;4943843;28;20051;-70
2023/11/06 00:52:06;;;;;;;0.10;0.10;;;;;;;8.28;100.00;97845.44;4943491;28;20062;-71
2023/11/06 00:54:33;;;;;;;0.10;0.10;;;;;;;8.27;100.00;97854.72;4940883;28;20067;-70
2023/11/06 00:57:00;;;;;;;0.10;0.10;;;;;;;8.26;100.00;97842.22;4953297;28;20576;-71
2023/11/06 00:59:26;;;;;;;0.10;0.10;;;;;;;8.29;100.00;97852.47;4946183;28;20055;-71
2023/11/06 01:01:55;;;;;;;0.10;0.10;;;;;;;8.32;100.00;97841.78;4926491;28;20518;-71
2023/11/06 01:04:21;;;;;;;0.10;0.10;;;;;;;8.34;100.00;97838.75;4924904;29;20492;-71
2023/11/06 01:06:49;;;;;;;0.10;0.10;;;;;;;8.36;100.00;97836.53;4941848;28;20071;-70
2023/11/06 01:09:16;;;;;;;0.10;0.10;;;;;;;8.37;100.00;97844.38;4929723;28;20051;-71
2023/11/06 01:11:47;;;;;;;0.10;0.10;;;;;;;8.38;100.00;97848.72;4946878;28;20157;-71
2023/11/06 01:14:13;;;;;;;0.10;0.10;;;;;;;8.38;100.00;97843.28;4942931;28;20071;-71
2023/11/06 01:16:39;;;;;;;0.10;0.10;;;;;;;8.43;100.00;97836.09;4940867;28;20492;-71
2023/11/06 01:19:05;;;;;;;0.10;0.10;;;;;;;8.47;100.00;97843.34;4940574;28;20051;-70
2023/11/06 01:21:32;;;;;;;0.10;0.10;;;;;;;8.50;100.00;97840.03;4961770;28;20115;-70
2023/11/06 01:24:00;;;;;;;0.10;0.10;;;;;;;8.55;100.00;97832.88;4950512;28;20650;-71
2023/11/06 01:26:27;;;;;;;0.10;0.10;;;;;;;8.57;100.00;97827.91;4942910;28;20054;-70
2023/11/06 01:28:53;;;;;;;0.10;0.10;;;;;;;8.58;100.00;97824.84;4939864;28;20315;-70
2023/11/06 01:31:19;;;;;;;0.10;0.10;;;;;;;8.60;100.00;97808.22;4943364;28;20126;-71
2023/11/06 01:33:45;;;;;;;0.10;0.10;;;;;;;8.64;100.00;97810.00;4949631;28;20051;-70
2023/11/06 01:36:11;;;;;;;0.10;0.10;;;;;;;8.67;100.00;97813.22;4963469;28;20504;-71
2023/11/06 01:38:38;;;;;;;0.10;0.10;;;;;;;8.68;100.00;97806.66;4922274;28;20530;-71
2023/11/06 01:41:05;;;;;;;0.10;0.10;;;;;;;8.70;100.00;97804.44;4940753;28;20047;-70
2023/11/06 01:43:31;;;;;;;;;;;;;;;8.74;100.00;97800.78;4935695;28;20055;-71
2023/11/06 01:45:58;;;;;;;0.10;0.10;;;;;;;8.73;100.00;97796.44;4953983;28;19931;-71
2023/11/06 01:48:27;;;;;;;0.10;0.10;;;;;;;8.79;100.00;97803.34;4963616;28;20047;-71
2023/11/06 01:50:54;;;;;;;0.10;0.10;;;;;;;8.80;100.00;97804.97;4940801;28;20062;-70
2023/11/06 01:53:22;;;;;;;0.10;0.10;;;;;;;8.80;100.00;97807.69;4939915;28;20055;-71
2023/11/06 01:55:51;;;;;;;0.10;0.10;;;;;;;8.84;100.00;97807.09;4938865;28;20504;-70
2023/11/06 01:58:19;;;;;;;0.10;0.10;;;;;;;8.85;100.00;97812.22;4927031;28;20146;-70
2023/11/06 02:00:47;;;;;;;0.10;0.10;;;;;;;8.88;100.00;97811.59;4942834;28;20044;-71
2023/11/06 02:03:14;;;;;;;0.10;0.10;;;;;;;8.85;100.00;97797.78;4945181;28;20125;-71
2023/11/06 02:05:40;;;;;;;0.10;0.10;;;;;;;8.90;100.00;97805.84;4954085;28;20057;-71
2023/11/06 02:08:06;;;;;;;0.10;0.10;;;;;;;8.93;100.00;97816.91;4946475;28;20109;-70
2023/11/06 02:10:33;;;;;;;0.10;0.10;;;;;;;8.97;100.00;97811.63;4905750;29;20047;-70
2023/11/06 02:12:59;;;;;;;0.10;0.10;;;;;;;8.98;100.00;97809.72;4950353;28;20489;-70
2023/11/06 02:15:27;;;;;;;0.10;0.10;;;;;;;9.02;100.00;97811.50;4957485;28;20066;-71
2023/11/06 02:17:57;;;;;;;0.10;0.10;;;;;;;9.06;100.00;97812.50;4940892;28;20322;-70
2023/11/06 02:20:23;;;;;;;0.10;0.10;;;;;;;9.11;100.00;97818.91;4953436;28;20142;-71
2023/11/06 02:22:52;;;;;;;0.10;0.10;;;;;;;9.11;100.00;97816.19;4936261;29;20158;-70
2023/11/06 02:25:22;;;;;;;0.10;0.10;;;;;;;9.08;100.00;97812.97;4951778;28;20330;-70
2023/11/06 02:27:48;;;;;;;0.10;0.10;;;;;;;9.07;100.00;97818.75;4950302;28;20098;-70
2023/11/06 02:30:14;;;;;;;0.10;0.10;;;;;;;9.02;100.00;97808.78;4939027;28;20055;-71
2023/11/06 02:32:40;;;;;;;0.10;0.10;;;;;;;9.12;100.00;97812.34;4937281;28;20071;-70
2023/11/06 02:35:07;;;;;;;0.10;0.10;;;;;;;9.12;100.00;97817.78;4935540;29;20082;-71
2023/11/06 02:37:34;;;;;;;0.10;0.10;;;;;;;9.18;100.00;97822.78;4948248;28;20066;-70
2023/11/06 02:40:00;;;;;;;0.10;0.10;;;;;;;9.20;100.00;97819.78;4943269;28;20064;-72
2023/11/06 02:42:28;;;;;;;0.10;0.10;;;;;;;9.21;100.00;97815.91;4937614;29;20055;-71
2023/11/06 02:44:54;;;;;;;;;;;;;;;9.23;100.00;97827.31;4965031;28;20124;-71
2023/11/06 02:47:20;;;;;;;0.10;0.10;;;;;;;9.24;100.00;97825.41;4940714;28;19930;-70
2023/11/06 02:49:46;;;;;;;0.10;0.10;;;;;;;9.25;100.00;97813.38;4940185;28;20109;-71
2023/11/06 02:52:12;;;;;;;0.10;0.10;;;;;;;9.27;100.00;97813.88;4937443;28;20055;-71
2023/11/06 02:54:38;;;;;;;0.10;0.10;;;;;;;9.28;100.00;97805.34;4925009;28;20047;-70
2023/11/06 02:57:05;;;;;;;0.10;0.10;;;;;;;9.32;100.00;97816.44;4961212;28;20531;-70
2023/11/06 02:59:33;;;;;;;0.10;0.10;;;;;;;9.34;100.00;97820.47;4920708;29;20058;-70
2023/11/06 03:02:01;;;;;;;0.10;0.10;;;;;;;9.35;100.00;97816.63;4937734;28;20141;-71
2023/11/06 03:04:27;;;;;;;0.10;0.10;;;;;;;9.36;100.00;97831.06;4936086;29;20044;-71
2023/11/06 03:06:54;;;;;;;0.10;0.10;;;;;;;9.41;100.00;97828.19;4953782;28;20051;-70
2023/11/06 03:09:21;;;;;;;0.10;0.10;;;;;;;9.45;100.00;97836.56;4943654;28;20059;-71
2023/11/06 03:11:47;;;;;;;0.10;0.10;;;;;;;9.46;100.00;97835.44;4946831;28;20057;-71
2023/11/06 03:14:13;;;;;;;0.10;0.10;;;;;;;9.49;100.00;97845.72;4958636;28;20084;-71
2023/11/06 03:16:40;;;;;;;0.10;0.10;;;;;;;9.51;100.00;97844.25;4940005;28;20043;-70
2023/11/06 03:19:07;;;;;;;0.10;0.10;;;;;;;9.55;100.00;97851.84;4939706;28;20139;-71
2023/11/06 03:21:33;;;;;;;0.10;0.10;;;;;;;9.56;100.00;97848.00;4991697;28;20062;-70
2023/11/06 03:24:00;;;;;;;0.10;0.10;;;;;;;9.53;100.00;97849.41;4938881;28;20055;-71
2023/11/06 03:26:26;;;;;;;0.10;0.10;;;;;;;9.54;100.00;97861.16;4942160;28;20146;-71
2023/11/06 03:28:52;;;;;;;0.10;0.10;;;;;;;9.51;99.37;97851.66;4945840;28;20521;-72
2023/11/06 03:31:18;;;;;;;0.10;0.10;;;;;;;9.49;98.88;97886.63;4957378;28;20059;-72
2023/11/06 03:33:46;;;;;;;0.10;0.10;;;;;;;9.47;98.42;97856.94;4927858;28;20405;-71
2023/11/06 03:36:11;;;;;;;;;;;;;;;9.46;97.68;97868.97;4959729;28;20053;-70
2023/11/06 03:38:38;;;;;;;0.10;0.10;;;;;;;9.42;96.66;97868.00;4919632;28;19933;-71
2023/11/06 03:41:04;;;;;;;0.00;0.00;;;;;;;9.33;96.63;97861.69;4941682;28;20152;-71
2023/11/06 03:43:31;;;;;;;0.10;0.10;;;;;;;9.38;96.76;97861.56;4954721;28;20054;-71
2023/11/06 03:46:00;;;;;;;0.10;0.10;;;;;;;9.30;96.90;97846.78;4963059;28;20170;-71
2023/11/06 03:48:26;;;;;;;0.10;0.10;;;;;;;9.21;97.48;97863.09;4955894;28;20051;-70
2023/11/06 03:50:54;;;;;;;0.10;0.10;;;;;;;9.13;96.17;97855.66;4940239;28;20052;-72
2023/11/06 03:53:20;;;;;;;;;;;;;;;9.02;95.47;97895.19;4940755;28;20131;-70
2023/11/06 03:55:46;;;;;;;0.10;0.10;;;;;;;8.89;95.47;97873.16;4943187;28;20028;-71
2023/11/06 03:58:12;;;;;;;0.10;0.10;;;;;;;8.82;95.85;97880.97;4949774;28;20059;-71
2023/11/06 04:00:39;;;;;;;0.10;0.10;;;;;;;8.76;95.64;97895.84;4948406;28;20493;-71
2023/11/06 04:03:05;;;;;;;0.10;0.10;;;;;;;8.70;95.47;97905.22;4939975;28;20570;-70
2023/11/06 04:05:31;;;;;;;0.10;0.10;;;;;;;8.64;93.99;97890.91;4908223;28;20055;-69
2023/11/06 04:07:59;;;;;;;0.10;0.10;;;;;;;8.56;93.82;97916.97;4944303;28;20122;-71
2023/11/06 04:10:25;;;;;;;0.10;0.10;;;;;;;8.52;93.02;97924.16;4938545;28;20059;-71
2023/11/06 04:12:51;;;;;;;0.10;0.10;;;;;;;8.47;92.55;97937.88;4940204;28;20063;-71
2023/11/06 04:15:18;;;;;;;0.10;0.10;;;;;;;8.43;91.83;97925.97;4938723;28;20063;-71
2023/11/06 04:17:44;;;;;;;0.10;0.10;;;;;;;8.42;90.55;97910.72;4938198;28;20059;-69
2023/11/06 04:20:11;;;;;;;0.10;0.10;;;;;;;8.43;89.29;97926.78;4946848;28;20116;-70
2023/11/06 04:22:37;;;;;;;0.10;0.10;;;;;;;8.41;88.87;97931.72;4948101;28;20112;-71
2023/11/06 04:25:06;;;;;;;0.10;0.10;;;;;;;8.44;88.35;97927.59;4937730;29;20058;-71
2023/11/06 04:27:32;;;;;;;0.10;0.10;;;;;;;8.43;87.96;97905.00;4938664;28;20561;-70
2023/11/06 04:29:59;;;;;;;0.10;0.10;;;;;;;8.42;87.27;97918.91;4943786;28;20458;-70
2023/11/06 04:32:25;;;;;;;0.10;0.10;;;;;;;8.39;87.28;97914.91;4955598;28;20047;-71
2023/11/06 04:34:51;;;;;;;0.10;0.10;;;;;;;8.40;87.19;97941.00;4972032;28;20395;-71
2023/11/06 04:37:17;;;;;;;0.10;0.10;;;;;;;8.45;87.07;97929.22;4936534;28;20158;-70
2023/11/06 04:39:44;;;;;;;0.10;0.10;;;;;;;8.46;87.34;97928.09;4941732;28;20331;-71
2023/11/06 04:42:11;;;;;;;0.10;0.10;;;;;;;8.47;86.90;97937.88;4945714;28;20415;-70
2023/11/06 04:44:38;;;;;;;0.10;0.10;;;;;;;8.47;87.25;97927.78;4916789;28;20059;-70
2023/11/06 04:47:04;;;;;;;0.10;0.10;;;;;;;8.47;87.34;97927.78;4940076;28;20051;-71
2023/11/06 04:49:31;;;;;;;0.10;0.10;;;;;;;8.47;nan;97919.59;4948634;28;20051;-70
2023/11/06 04:51:57;;;;;;;0.10;0.10;;;;;;;8.48;87.73;97934.84;4946807;28;20078;-71
2023/11/06 04:54:24;;;;;;;0.10;0.10;;;;;;;8.53;87.94;97933.94;4940090;28;20486;-71
2023/11/06 04:56:50;;;;;;;0.10;0.10;;;;;;;8.51;87.90;97955.25;4984231;28;20040;-71
2023/11/06 04:59:18;;;;;;;0.10;0.10;;;;;;;8.41;88.80;97947.25;4957533;28;20100;-71
2023/11/06 05:01:45;;;;;;;0.10;0.10;;;;;;;8.31;89.88;97951.81;4943993;28;20303;-71
2023/11/06 05:04:11;;;;;;;0.10;0.10;;;;;;;8.25;90.93;97942.13;4924275;29;20044;-71
2023/11/06 05:06:38;;;;;;;0.10;0.10;;;;;;;8.26;91.81;97937.50;4938126;29;20063;-71
2023/11/06 05:09:05;;;;;;;0.10;0.10;;;;;;;8.28;92.45;97940.72;4938225;29;20053;-70
2023/11/06 05:11:31;;;;;;;0.10;0.10;;;;;;;8.17;93.79;97940.94;4946719;28;20065;-71
2023/11/06 05:13:58;;;;;;;0.10;0.10;;;;;;;8.13;94.88;97952.75;4959856;28;20071;-71
2023/11/06 05:16:27;;;;;;;0.10;0.10;;;;;;;8.07;95.60;97944.69;4953562;28;20182;-71
2023/11/06 05:18:54;;;;;;;0.10;0.10;;;;;;;8.02;96.40;97943.97;4939648;28;20051;-70
2023/11/06 05:21:21;;;;;;;0.10;0.10;;;;;;;7.94;96.94;97949.03;4937970;28;20047;-71
2023/11/06 05:23:48;;;;;;;0.10;0.10;;;;;;;7.89;97.08;97932.81;4938830;28;20058;-71
2023/11/06 05:26:14;;;;;;;0.10;0.10;;;;;;;7.98;97.26;97938.34;4953616;28;20052;-71
2023/11/06 05:28:41;;;;;;;0.10;0.10;;;;;;;8.04;96.82;97937.13;4950387;28;20162;-72
2023/11/06 05:31:09;;;;;;;0.10;0.10;;;;;;;8.07;96.48;97938.44;4940613;28;20055;-71
2023/11/06 05:33:37;;;;;;;0.10;0.10;;;;;;;8.07;96.24;97935.72;4940941;28;20342;-71
2023/11/06 05:36:03;;;;;;;;;;;;;;;8.11;96.50;97939.44;4940897;28;20061;-71
2023/11/06 05:38:29;;;;;;;0.10;0.10;;;;;;;8.12;95.13;97941.06;4949423;28;19927;-71
2023/11/06 05:40:55;;;;;;;0.10;0.10;;;;;;;8.16;95.09;97943.97;4946288;28;20114;-70
2023/11/06 05:43:21;;;;;;;0.10;0.10;;;;;;;8.17;95.00;97935.50;4955800;28;20131;-71
2023/11/06 05:45:48;;;;;;;0.10;0.10;;;;;;;8.18;94.58;97936.31;4938152;28;20059;-71
2023/11/06 05:48:14;;;;;;;0.10;0.10;;;;;;;8.21;93.89;97941.13;4938833;28;20063;-71
2023/11/06 05:50:42;;;;;;;0.10;0.10;;;;;;;8.23;93.75;97942.47;4963076;28;20059;-71
2023/11/06 05:53:08;;;;;;;0.10;0.10;;;;;;;8.24;93.09;97956.88;4948688;28;20053;-71
2023/11/06 05:55:35;;;;;;;0.10;0.10;;;;;;;8.24;92.35;97945.97;4944434;28;20435;-72
2023/11/06 05:58:01;;;;;;;0.10;0.10;;;;;;;8.28;92.70;97940.72;4939773;28;20039;-72
2023/11/06 06:00:28;;;;;;;0.00;0.00;;;;;;;8.36;92.58;97943.53;4957243;28;20303;-70
2023/11/06 06:02:59;;;;;;;0.10;0.10;;;;;;;8.38;92.87;97935.88;4946116;28;20052;-71
2023/11/06 06:05:25;;;;;;;0.10;0.10;;;;;;;8.41;92.71;97939.09;4962038;28;20067;-71
2023/11/06 06:07:53;;;;;;;0.10;0.10;;;;;;;8.41;92.17;97933.63;4958085;28;20062;-70
2023/11/06 06:10:19;;;;;;;0.10;0.10;;;;;;;8.35;92.89;97928.31;4939232;29;20047;-71
2023/11/06 06:12:47;;;;;;;0.10;0.10;;;;;;;8.40;92.91;97934.75;4940261;28;20059;-71
2023/11/06 06:15:14;;;;;;;0.10;0.10;;;;;;;8.35;92.89;97931.03;4954363;28;20067;-71
2023/11/06 06:17:40;;;;;;;0.10;0.10;;;;;;;8.36;93.73;97926.41;4949139;28;20099;-70
2023/11/06 06:20:12;;;;;;;0.10;0.10;;;;;;;8.45;93.48;97927.28;4943277;28;20051;-71
2023/11/06 06:22:39;;;;;;;0.10;0.10;;;;;;;8.55;93.10;97934.44;4938930;29;20133;-71
2023/11/06 06:25:08;;;;;;;0.10;0.10;;;;;;;8.67;93.06;97936.66;4936843;28;20418;-71
2023/11/06 06:27:37;;;;;;;0.10;0.10;;;;;;;8.80;92.74;97926.81;4950535;28;20299;-70
2023/11/06 06:30:06;;;;;;;0.10;0.10;;;;;;;8.84;92.63;97935.19;4955851;28;20146;-72
2023/11/06 06:32:32;;;;;;;0.10;0.10;;;;;;;8.86;92.29;97922.03;4938802;29;20050;-72
2023/11/06 06:34:59;;;;;;;0.10;0.10;;;;;;;8.85;92.28;97923.16;4938505;28;20174;-72
2023/11/06 06:37:25;;;;;;;0.10;0.10;;;;;;;8.86;92.44;97932.94;4944359;28;20047;-72
2023/11/06 06:39:51;;;;;;;0.10;0.10;;;;;;;8.85;92.74;97928.59;4939440;28;20047;-72
2023/11/06 06:42:19;;;;;;;0.10;0.10;;;;;;;8.81;92.39;97922.97;4995750;28;20062;-71
2023/11/06 06:44:45;;;;;;;0.10;0.10;;;;;;;8.79;92.46;97925.19;4947855;28;20107;-71
2023/11/06 06:47:11;;;;;;;0.10;0.10;;;;;;;8.77;92.78;97913.81;4941067;28;20061;-71
2023/11/06 06:49:40;;;;;;;0.10;0.10;;;;;;;8.86;92.91;97913.88;4937990;28;20438;-71
2023/11/06 06:52:07;;;;;;;0.10;0.10;;;;;;;8.82;92.58;97912.84;4944021;28;20047;-71
2023/11/06 06:54:34;;;;;;;0.10;0.10;;;;;;;8.88;92.35;97912.41;4942469;28;20533;-72
2023/11/06 06:57:01;;;;;;;0.10;0.10;;;;;;;8.90;91.97;97907.50;4949227;28;20572;-71
2023/11/06 06:59:29;;;;;;;0.10;0.10;;;;;;;8.93;92.20;97919.69;4937091;29;20066;-71
2023/11/06 07:01:56;;;;;;;0.10;0.10;;;;;;;8.93;91.86;97917.78;4940518;28;20097;-71
2023/11/06 07:04:25;;;;;;;0.10;0.10;;;;;;;8.99;92.21;97917.63;4936681;28;20093;-71
2023/11/06 07:06:52;;;;;;;0.10;0.10;;;;;;;9.00;91.74;97916.50;4614300;28;9999919;-71
2023/11/06 07:09:18;;;;;;;0.10;0.10;;;;;;;8.99;91.85;97918.47;4935881;28;20055;-72
2023/11/06 07:11:45;;;;;;;0.10;0.10;;;;;;;9.01;91.95;97909.94;4978383;28;20055;-71
2023/11/06 07:14:11;;;;;;;0.10;0.10;;;;;;;9.00;91.72;97914.59;4940198;28;20047;-71
2023/11/06 07:16:39;;;;;;;0.10;0.10;;;;;;;8.97;91.92;97908.97;4935781;28;20784;-72
2023/11/06 07:19:06;;;;;;;0.10;0.10;;;;;;;8.98;92.09;97916.03;4939714;28;20066;-71
2023/11/06 07:21:32;;;;;;;0.10;0.10;;;;;;;8.97;91.94;97911.69;4935155;28;20499;-71
2023/11/06 07:23:58;;;;;;;0.10;0.10;;;;;;;8.97;92.17;97915.22;4939520;28;20054;-71
2023/11/06 07:26:25;;;;;;;0.10;0.10;;;;;;;8.98;92.57;97921.47;4943281;28;20072;-71
2023/11/06 07:28:52;;;;;;;0.10;0.10;;;;;;;8.97;92.38;97914.41;4936149;28;20048;-70
2023/11/06 07:31:20;;;;;;;0.10;0.10;;;;;;;8.98;92.18;97919.56;4941071;28;20451;-71
2023/11/06 07:33:48;;;;;;;0.10;0.10;;;;;;;8.92;92.30;97910.72;4932392;28;20051;-71
2023/11/06 07:36:15;;;;;;;0.10;0.10;;;;;;;8.93;92.33;97904.13;4955633;28;20136;-70
2023/11/06 07:38:42;;;;;;;0.10;0.10;;;;;;;8.90;92.83;97918.41;4934768;28;20073;-70
2023/11/06 07:41:10;;;;;;;0.10;0.10;;;;;;;8.88;93.04;97926.06;4946791;28;20094;-71
2023/11/06 07:43:37;;;;;;;0.10;0.10;;;;;;;8.85;93.29;97931.34;4934632;28;20043;-71
2023/11/06 07:46:04;;;;;;;0.10;0.10;;;;;;;8.87;93.52;97932.63;4935154;28;20086;-71
2023/11/06 07:48:30;;;;;;;0.10;0.10;;;;;;;8.89;93.61;97927.66;4951858;28;20047;-70
2023/11/06 07:50:58;;;;;;;0.10;0.10;;;;;;;8.92;93.49;97920.78;4937924;28;20055;-70
2023/11/06 07:53:24;;;;;;;;;;;;;;;8.96;93.94;97943.59;4933155;28;20134;-70
2023/11/06 07:55:50;;;;;;;0.10;0.10;;;;;;;8.99;93.24;97943.00;4944047;28;20029;-70
2023/11/06 07:58:16;;;;;;;0.10;0.10;;;;;;;8.99;93.28;97928.53;4939447;28;20560;-70
2023/11/06 08:00:43;;;;;;;0.10;0.10;;;;;;;8.96;93.48;97905.41;4965835;28;20097;-70
2023/11/06 08:03:09;;;;;;;0.10;0.10;;;;;;;8.98;93.82;97910.56;4959004;28;20252;-70
2023/11/06 08:05:37;;;;;;;0.10;0.10;;;;;;;8.99;94.07;97926.63;4942537;28;20128;-70
2023/11/06 08:08:05;;;;;;;0.52;0.10;;;;;;;8.98;94.18;97916.84;4939732;28;20062;-71
2023/11/06 08:10:34;;;;;;;0.10;0.10;;;;;;;9.03;94.22;97926.78;4972374;28;20055;-70
2023/11/06 08:13:01;;;;;;;0.10;0.10;;;;;;;9.06;93.77;97926.19;4951751;28;20518;-70
2023/11/06 08:15:27;;;;;;;0.10;0.10;;;;;;;9.05;94.03;97928.09;4949812;28;20051;-71
2023/11/06 08:17:53;;;;;;;0.10;0.10;;;;;;;9.05;94.06;97925.38;4950058;28;20138;-70
2023/11/06 08:20:20;;;;;;;0.10;0.10;;;;;;;9.08;94.21;97924.75;4929857;28;20051;-71
2023/11/06 08:22:47;;;;;;;0.10;0.10;;;;;;;9.15;94.06;97913.41;4923631;29;20097;-70
2023/11/06 08:25:14;;;;;;;0.10;0.10;;;;;;;9.17;94.22;97911.16;4953528;28;20078;-70
2023/11/06 08:27:44;;;;;;;0.10;0.10;;;;;;;9.09;94.95;97898.31;4956961;28;20043;-70
2023/11/06 08:30:12;;;;;;;0.10;0.10;;;;;;;9.09;95.41;97909.22;4925876;29;20157;-71
2023/11/06 08:32:38;;;;;;;0.10;0.10;;;;;;;9.05;95.99;97908.19;4939316;29;20066;-74
2023/11/06 08:35:05;;;;;;;0.10;0.10;;;;;;;9.03;96.67;97907.72;4939632;29;20537;-70
2023/11/06 08:37:32;;;;;;;0.10;0.10;;;;;;;9.03;97.31;97897.63;4927529;28;20059;-70
2023/11/06 08:39:59;;;;;;;0.10;0.10;;;;;;;9.06;97.66;97885.31;4939953;28;20057;-71
2023/11/06 08:42:26;;;;;;;0.10;0.10;;;;;;;9.11;97.98;97887.88;4943184;28;20055;-71
2023/11/06 08:44:54;;;;;;;0.10;0.10;;;;;;;9.15;98.05;97886.13;4954123;28;20043;-71
2023/11/06 08:47:20;;;;;;;0.10;0.10;;;;;;;9.16;98.31;97876.06;4957046;28;20061;-71
2023/11/06 08:49:47;;;;;;;0.10;0.10;;;;;;;9.21;98.24;97879.47;4950629;28;20055;-71
2023/11/06 08:52:14;;;;;;;0.10;0.10;;;;;;;9.21;98.03;97876.72;4936555;28;20399;-70
2023/11/06 08:54:45;;;;;;;0.10;0.10;;;;;;;9.24;98.28;97871.75;4595264;28;10000325;-70
2023/11/06 08:57:13;;;;;;;0.10;0.10;;;;;;;9.27;98.05;97869.19;4941622;28;20043;-70
2023/11/06 08:59:41;;;;;;;0.10;0.10;;;;;;;9.33;97.87;97876.13;4953884;28;20051;-71
2023/11/06 09:02:08;;;;;;;0.10;0.10;;;;;;;9.35;97.45;97865.72;4943750;28;20124;-72
2023/11/06 09:04:34;;;;;;;0.10;0.10;;;;;;;9.37;97.52;97857.22;4958762;28;20083;-71
2023/11/06 09:07:01;;;;;;;0.10;0.10;;;;;;;9.39;97.16;97859.63;4950588;28;20046;-72
2023/11/06 09:09:27;;;;;;;0.10;0.10;;;;;;;9.47;97.35;97851.47;4942679;28;20154;-71
2023/11/06 09:11:53;;;;;;;0.10;0.10;;;;;;;9.58;96.94;97852.00;4952614;28;20201;-71
2023/11/06 09:14:19;;;;;;;0.10;0.10;;;;;;;9.60;96.14;97841.59;4951292;28;20051;-71
2023/11/06 09:16:47;;;;;;;0.38;0.10;;;;;;;9.59;96.50;97839.16;4960071;28;20047;-72
2023/11/06 09:19:13;;;;;;;;;;;;;;;9.61;96.43;97837.75;4949879;28;20048;-71
2023/11/06 09:21:39;;;;;;;0.10;0.10;;;;;;;9.63;95.98;97829.22;4924114;28;19926;-72
2023/11/06 09:24:08;;;;;;;0.10;0.10;;;;;;;9.62;96.02;97842.09;4951079;28;20067;-71
2023/11/06 09:26:34;;;;;;;0.20;0.20;;;;;;;9.57;96.15;97831.28;4950585;28;20047;-71
2023/11/06 09:29:01;;;;;;;0.10;0.10;;;;;;;9.63;96.27;97829.22;4944951;28;20051;-71
2023/11/06 09:31:28;;;;;;;0.20;0.20;;;;;;;9.72;96.26;97830.06;4943801;28;20146;-71
2023/11/06 09:33:56;;;;;;;0.10;0.10;;;;;;;9.86;95.36;97831.88;4942852;28;20070;-71
2023/11/06 09:36:23;;;;;;;0.15;0.15;;;;;;;9.91;94.92;97815.31;4949336;28;20134;-71
2023/11/06 09:38:49;;;;;;;0.10;0.10;;;;;;;9.95;94.68;97816.28;4954477;28;20106;-71
2023/11/06 09:41:16;;;;;;;0.10;0.10;;;;;;;9.93;94.10;97800.25;4945162;28;20101;-70
2023/11/06 09:43:42;;;;;;;0.10;0.10;;;;;;;9.91;94.65;97798.94;4947932;28;20138;-71
2023/11/06 09:46:10;;;;;;;0.13;0.13;;;;;;;9.99;94.50;97800.91;4937556;28;20047;-71
2023/11/06 09:48:38;;;;;;;0.10;0.10;;;;;;;10.03;94.54;97795.56;4932437;28;20062;-71
2023/11/06 09:51:10;;;;;;;0.20;0.20;;;;;;;10.06;94.24;97794.94;4942792;28;20067;-70
2023/11/06 09:53:38;;;;;;;0.10;0.10;;;;;;;10.07;93.92;97797.34;4944414;28;20063;-71
2023/11/06 09:56:06;;;;;;;0.10;0.10;;;;;;;10.10;93.74;97789.63;4943828;28;20106;-71
2023/11/06 09:58:34;;;;;;;0.10;0.10;;;;;;;10.10;93.54;97781.44;4969912;28;20043;-71
2023/11/06 10:01:00;;;;;;;;;;;;;;;10.05;93.56;97779.69;4933108;28;20069;-71
2023/11/06 10:03:26;;;;;;;0.10;0.10;;;;;;;10.04;93.73;97780.81;4961229;28;20393;-71
2023/11/06 10:05:52;;;;;;;0.10;0.10;;;;;;;10.04;93.72;97784.34;4942734;28;20051;-71
2023/11/06 10:08:29;;;;;;;0.10;0.10;;;;;;;10.09;93.39;97780.66;4942825;28;21007;-72
2023/11/06 10:11:01;;;;;;;0.15;0.15;;;;;;;10.19;93.15;97774.06;4945391;28;20053;-71
2023/11/06 10:13:28;;;;;;;0.10;0.10;;;;;;;10.29;92.85;97764.75;5000701;28;20488;-71
2023/11/06 10:15:55;;;;;;;0.20;0.20;;;;;;;10.27;92.48;97767.78;4919789;28;20058;-71
2023/11/06 10:18:26;;;;;;;0.10;0.10;;;;;;;10.24;92.53;97751.25;4923353;28;20146;-70
2023/11/06 10:20:55;;;;;;;0.10;0.10;;;;;;;10.31;92.49;97757.03;4944118;28;20055;-70
2023/11/06 10:23:26;;;;;;;0.20;0.20;;;;;;;10.37;92.60;97761.19;4939055;28;20089;-71
2023/11/06 10:25:55;;;;;;;0.10;0.10;;;;;;;10.40;92.33;97759.75;4942311;28;20562;-71
2023/11/06 10:28:22;;;;;;;0.10;0.10;;;;;;;10.36;92.10;97746.75;4947233;28;20053;-71
2023/11/06 10:30:51;;;;;;;0.17;0.17;;;;;;;10.39;92.25;97742.56;4942023;28;20048;-71
2023/11/06 10:33:19;;;;;;;0.10;0.10;;;;;;;10.38;92.42;97749.16;4941085;28;20065;-71
2023/11/06 10:35:45;;;;;;;0.10;0.10;;;;;;;10.40;93.04;97757.00;4939828;28;20047;-71
2023/11/06 10:38:29;;;;;;;0.10;0.10;;;;;;;10.37;93.44;97750.25;4950709;28;20073;-72
2023/11/06 10:40:59;;;;;;;0.10;0.10;;;;;;;10.41;93.86;97743.06;4944052;28;20054;-71
2023/11/06 10:43:26;;;;;;;0.10;0.10;;;;;;;10.39;94.26;97742.56;4976031;28;20171;-71
2023/11/06 10:45:53;;;;;;;0.10;0.10;;;;;;;10.36;94.61;97735.81;4945066;28;20855;-71
2023/11/06 10:48:31;;;;;;;0.20;0.20;;;;;;;10.38;94.93;97738.22;4934840;28;20108;-72
2023/11/06 10:50:59;;;;;;;0.10;0.10;;;;;;;10.32;95.45;97732.13;4953454;28;20360;-72
2023/11/06 10:53:32;;;;;;;0.10;0.10;;;;;;;10.24;96.06;97735.66;4957854;28;20077;-71
2023/11/06 10:56:03;;;;;;;0.10;0.10;;;;;;;10.23;96.44;97728.59;4946025;28;20047;-72
2023/11/06 10:58:32;;;;;;;0.10;0.10;;;;;;;10.24;96.56;97726.69;4955117;28;20529;-72
2023/11/06 11:00:59;;;;;;;0.10;0.10;;;;;;;10.21;97.07;97728.91;4937062;29;20043;-71
2023/11/06 11:03:28;;;;;;;0.10;0.10;;;;;;;10.21;97.48;97722.66;4954451;28;20109;-71
2023/11/06 11:05:55;;;;;;;0.10;0.10;;;;;;;10.17;97.59;97716.25;4938780;28;20055;-72
2023/11/06 11:08:25;;;;;;;0.10;0.10;;;;;;;10.17;97.82;97710.78;4971764;28;20047;-71
2023/11/06 11:10:52;;;;;;;0.10;0.10;;;;;;;10.17;97.91;97714.31;4936600;28;20467;-72
2023/11/06 11:13:21;;;;;;;0.20;0.20;;;;;;;10.17;97.90;97719.75;4939367;28;20167;-71
2023/11/06 11:15:47;;;;;;;0.10;0.10;;;;;;;10.14;98.08;97701.31;4944847;28;20108;-71
2023/11/06 11:18:15;;;;;;;0.10;0.10;;;;;;;10.14;97.87;97703.22;4933304;28;20051;-71
2023/11/06 11:20:58;;;;;;;0.20;0.20;;;;;;;10.12;98.27;97698.09;4926775;28;20485;-71
2023/11/06 11:23:38;;;;;;;0.10;0.10;;;;;;;10.11;97.64;97698.41;4937199;28;20430;-71
2023/11/06 11:26:05;;;;;;;0.10;0.10;;;;;;;10.08;97.77;97702.59;4940184;28;20055;-70
2023/11/06 11:28:54;;;;;;;0.10;0.10;;;;;;;10.01;98.24;97703.09;4957024;28;20646;-71
2023/11/06 11:31:35;;;;;;;0.10;0.10;;;;;;;9.91;99.16;97698.75;4941536;28;20051;-71
2023/11/06 11:34:05;;;;;;;0.10;0.10;;;;;;;9.95;99.69;97689.91;4944136;28;20039;-70
2023/11/06 11:36:33;;;;;;;0.17;0.17;;;;;;;10.01;99.96;97694.91;4945217;28;20526;-71
2023/11/06 11:39:01;;;;;;;0.10;0.10;;;;;;;10.07;99.99;97690.06;4947568;28;20066;-71